sensor_id;sensor_type;location;lat;lon;timestamp;pressure;altitude;pressure_sealevel;temperature;humidity
75656;BME280;64252;51.094;13.714;2024-02-21T00:01:22;101036.69;;;17.66;42.72
75656;BME280;64252;51.094;13.714;2024-02-21T00:03:48;101030.09;;;17.24;43.35
75656;BME280;64252;51.094;13.714;2024-02-21T00:06:13;101034.38;;;17.50;43.59
75656;BME280;64252;51.094;13.714;2024-02-21T00:08:40;101031.06;;;17.59;42.90
75656;BME280;64252;51.094;13.714;2024-02-21T00:11:05;101027.91;;;17.42;42.75
75656;BME280;64252;51.094;13.714;2024-02-21T00:13:31;101024.50;;;17.62;42.83
75656;BME280;64252;51.094;13.714;2024-02-21T00:15:57;101020.59;;;17.41;42.66
75656;BME280;64252;51.094;13.714;2024-02-21T00:18:22;101024.09;;;17.63;42.10
75656;BME280;64252;51.094;13.714;2024-02-21T00:20:49;101015.63;;;16.94;42.64
75656;BME280;64252;51.094;13.714;2024-02-21T00:23:15;101015.38;;;17.29;42.64
75656;BME280;64252;51.094;13.714;2024-02-21T00:25:40;101019.56;;;17.66;41.60
75656;BME280;64252;51.094;13.714;2024-02-21T00:28:06;101014.13;;;17.82;41.83
75656;BME280;64252;51.094;13.714;2024-02-21T00:30:32;101001.16;;;17.74;41.53
75656;BME280;64252;51.094;13.714;2024-02-21T00:32:57;101005.47;;;17.89;41.17
75656;BME280;64252;51.094;13.714;2024-02-21T00:35:23;100997.13;;;17.68;41.12
75656;BME280;64252;51.094;13.714;2024-02-21T00:37:48;100999.06;;;18.15;40.71
75656;BME280;64252;51.094;13.714;2024-02-21T00:40:14;100996.59;;;18.17;40.87
75656;BME280;64252;51.094;13.714;2024-02-21T00:42:48;100990.66;;;17.56;41.81
75656;BME280;64252;51.094;13.714;2024-02-21T00:45:14;101001.81;;;17.85;41.31
75656;BME280;64252;51.094;13.714;2024-02-21T00:47:39;100991.41;;;17.68;41.79
75656;BME280;64252;51.094;13.714;2024-02-21T00:50:06;100997.44;;;17.77;41.46
75656;BME280;64252;51.094;13.714;2024-02-21T00:52:32;100988.47;;;18.12;40.61
75656;BME280;64252;51.094;13.714;2024-02-21T00:54:58;100989.31;;;18.09;41.04
75656;BME280;64252;51.094;13.714;2024-02-21T00:57:24;100977.06;;;18.09;41.32
75656;BME280;64252;51.094;13.714;2024-02-21T00:59:50;100979.94;;;17.71;41.36
75656;BME280;64252;51.094;13.714;2024-02-21T01:02:15;100982.06;;;17.64;41.92
75656;BME280;64252;51.094;13.714;2024-02-21T01:04:41;100974.84;;;16.24;43.38
75656;BME280;64252;51.094;13.714;2024-02-21T01:07:06;100978.16;;;16.92;42.80
75656;BME280;64252;51.094;13.714;2024-02-21T01:09:32;100962.19;;;17.49;41.99
75656;BME280;64252;51.094;13.714;2024-02-21T01:11:57;100973.34;;;17.78;41.33
75656;BME280;64252;51.094;13.714;2024-02-21T01:14:23;100962.94;;;17.53;41.69
75656;BME280;64252;51.094;13.714;2024-02-21T01:16:48;100956.50;;;17.87;40.80
75656;BME280;64252;51.094;13.714;2024-02-21T01:19:14;100951.03;;;17.99;41.00
75656;BME280;64252;51.094;13.714;2024-02-21T01:21:39;100955.09;;;17.20;41.81
75656;BME280;64252;51.094;13.714;2024-02-21T01:24:05;100950.50;;;16.85;42.24
75656;BME280;64252;51.094;13.714;2024-02-21T01:26:30;100945.78;;;17.61;41.46
75656;BME280;64252;51.094;13.714;2024-02-21T01:28:56;100942.69;;;17.41;41.78
75656;BME280;64252;51.094;13.714;2024-02-21T01:31:21;100937.41;;;16.88;42.00
75656;BME280;64252;51.094;13.714;2024-02-21T01:33:47;100927.06;;;17.08;42.08
75656;BME280;64252;51.094;13.714;2024-02-21T01:36:13;100930.19;;;16.76;42.48
75656;BME280;64252;51.094;13.714;2024-02-21T01:38:38;100921.38;;;17.04;42.07
75656;BME280;64252;51.094;13.714;2024-02-21T01:41:04;100916.38;;;16.71;42.80
75656;BME280;64252;51.094;13.714;2024-02-21T01:43:30;100907.94;;;17.05;42.42
75656;BME280;64252;51.094;13.714;2024-02-21T01:45:56;100901.34;;;16.63;42.76
75656;BME280;64252;51.094;13.714;2024-02-21T01:48:22;100899.97;;;17.30;42.35
75656;BME280;64252;51.094;13.714;2024-02-21T01:50:49;100889.97;;;17.08;41.77
75656;BME280;64252;51.094;13.714;2024-02-21T01:53:18;100896.41;;;17.56;41.24
75656;BME280;64252;51.094;13.714;2024-02-21T01:55:45;100900.94;;;17.54;41.24
75656;BME280;64252;51.094;13.714;2024-02-21T01:58:16;100887.53;;;17.06;42.10
75656;BME280;64252;51.094;13.714;2024-02-21T02:00:42;100893.25;;;17.47;41.54
75656;BME280;64252;51.094;13.714;2024-02-21T02:03:12;100892.78;;;16.63;42.93
75656;BME280;64252;51.094;13.714;2024-02-21T02:05:45;100877.56;;;17.25;42.43
75656;BME280;64252;51.094;13.714;2024-02-21T02:08:15;100885.94;;;17.46;41.81
75656;BME280;64252;51.094;13.714;2024-02-21T02:10:42;100887.63;;;16.37;43.17
75656;BME280;64252;51.094;13.714;2024-02-21T02:13:09;100878.75;;;16.87;42.77
75656;BME280;64252;51.094;13.714;2024-02-21T02:15:39;100881.66;;;17.28;42.05
75656;BME280;64252;51.094;13.714;2024-02-21T02:18:05;100875.75;;;17.45;41.75
75656;BME280;64252;51.094;13.714;2024-02-21T02:20:31;100880.06;;;17.23;41.76
75656;BME280;64252;51.094;13.714;2024-02-21T02:23:03;100870.91;;;16.39;43.19
75656;BME280;64252;51.094;13.714;2024-02-21T02:25:32;100879.72;;;17.51;41.11
75656;BME280;64252;51.094;13.714;2024-02-21T02:27:57;100880.28;;;17.77;40.88
75656;BME280;64252;51.094;13.714;2024-02-21T02:30:23;100875.56;;;17.97;40.45
75656;BME280;64252;51.094;13.714;2024-02-21T02:32:48;100871.63;;;17.50;41.14
75656;BME280;64252;51.094;13.714;2024-02-21T02:35:14;100872.59;;;17.74;41.30
75656;BME280;64252;51.094;13.714;2024-02-21T02:37:40;100877.19;;;17.98;40.47
75656;BME280;64252;51.094;13.714;2024-02-21T02:40:06;100868.41;;;17.82;41.29
75656;BME280;64252;51.094;13.714;2024-02-21T02:42:32;100861.47;;;17.83;40.95
75656;BME280;64252;51.094;13.714;2024-02-21T02:44:58;100870.59;;;18.01;40.37
75656;BME280;64252;51.094;13.714;2024-02-21T02:47:23;100861.91;;;18.08;40.29
75656;BME280;64252;51.094;13.714;2024-02-21T02:49:49;100860.47;;;17.63;41.62
75656;BME280;64252;51.094;13.714;2024-02-21T02:52:18;100861.69;;;17.65;41.51
75656;BME280;64252;51.094;13.714;2024-02-21T02:54:45;100858.66;;;17.38;41.62
75656;BME280;64252;51.094;13.714;2024-02-21T02:57:11;100855.25;;;17.54;41.50
75656;BME280;64252;51.094;13.714;2024-02-21T02:59:36;100851.50;;;17.64;41.14
75656;BME280;64252;51.094;13.714;2024-02-21T03:02:02;100847.84;;;17.56;41.54
75656;BME280;64252;51.094;13.714;2024-02-21T03:04:27;100841.94;;;17.40;41.64
75656;BME280;64252;51.094;13.714;2024-02-21T03:06:53;100840.28;;;17.02;42.28
75656;BME280;64252;51.094;13.714;2024-02-21T03:09:19;100840.88;;;17.24;41.94
75656;BME280;64252;51.094;13.714;2024-02-21T03:11:45;100838.78;;;17.69;41.03
75656;BME280;64252;51.094;13.714;2024-02-21T03:14:10;100838.84;;;17.65;41.33
75656;BME280;64252;51.094;13.714;2024-02-21T03:16:36;100840.19;;;17.13;42.31
75656;BME280;64252;51.094;13.714;2024-02-21T03:19:02;100822.31;;;17.08;42.33
75656;BME280;64252;51.094;13.714;2024-02-21T03:21:28;100836.47;;;17.53;41.24
75656;BME280;64252;51.094;13.714;2024-02-21T03:23:54;100829.78;;;17.33;41.79
75656;BME280;64252;51.094;13.714;2024-02-21T03:26:19;100839.25;;;17.64;41.38
75656;BME280;64252;51.094;13.714;2024-02-21T03:28:45;100841.63;;;17.31;41.93
75656;BME280;64252;51.094;13.714;2024-02-21T03:31:12;100833.63;;;17.53;41.46
75656;BME280;64252;51.094;13.714;2024-02-21T03:33:42;100833.13;;;17.28;42.06
75656;BME280;64252;51.094;13.714;2024-02-21T03:36:13;100838.28;;;17.40;41.77
75656;BME280;64252;51.094;13.714;2024-02-21T03:38:40;100833.72;;;17.80;40.87
75656;BME280;64252;51.094;13.714;2024-02-21T03:41:05;100830.31;;;17.92;40.61
75656;BME280;64252;51.094;13.714;2024-02-21T03:43:31;100828.75;;;17.87;40.76
75656;BME280;64252;51.094;13.714;2024-02-21T03:45:56;100832.56;;;17.02;42.52
75656;BME280;64252;51.094;13.714;2024-02-21T03:48:22;100826.50;;;17.72;41.01
75656;BME280;64252;51.094;13.714;2024-02-21T03:50:47;100827.50;;;17.54;41.48
75656;BME280;64252;51.094;13.714;2024-02-21T03:53:13;100825.56;;;17.07;42.15
75656;BME280;64252;51.094;13.714;2024-02-21T03:55:38;100816.06;;;17.54;41.28
75656;BME280;64252;51.094;13.714;2024-02-21T03:58:04;100813.41;;;17.74;41.02
75656;BME280;64252;51.094;13.714;2024-02-21T04:00:29;100812.28;;;17.98;40.57
75656;BME280;64252;51.094;13.714;2024-02-21T04:02:55;100814.63;;;18.04;40.29
75656;BME280;64252;51.094;13.714;2024-02-21T04:05:21;100815.06;;;18.02;40.34
75656;BME280;64252;51.094;13.714;2024-02-21T04:07:47;100812.66;;;17.70;41.23
75656;BME280;64252;51.094;13.714;2024-02-21T04:10:12;100809.28;;;17.79;41.13
75656;BME280;64252;51.094;13.714;2024-02-21T04:12:38;100814.97;;;17.45;41.67
75656;BME280;64252;51.094;13.714;2024-02-21T04:15:04;100813.59;;;17.56;41.36
75656;BME280;64252;51.094;13.714;2024-02-21T04:17:30;100814.78;;;17.25;41.72
75656;BME280;64252;51.094;13.714;2024-02-21T04:20:02;100814.28;;;17.34;42.05
75656;BME280;64252;51.094;13.714;2024-02-21T04:22:31;100803.50;;;17.82;40.97
75656;BME280;64252;51.094;13.714;2024-02-21T04:24:57;100808.19;;;17.32;41.74
75656;BME280;64252;51.094;13.714;2024-02-21T04:27:23;100806.97;;;17.67;40.97
75656;BME280;64252;51.094;13.714;2024-02-21T04:29:48;100801.69;;;17.95;40.33
75656;BME280;64252;51.094;13.714;2024-02-21T04:32:14;100805.44;;;17.59;41.14
75656;BME280;64252;51.094;13.714;2024-02-21T04:34:41;100806.69;;;17.20;41.94
75656;BME280;64252;51.094;13.714;2024-02-21T04:37:06;100802.72;;;17.44;41.59
75656;BME280;64252;51.094;13.714;2024-02-21T04:39:32;100796.44;;;17.56;41.53
75656;BME280;64252;51.094;13.714;2024-02-21T04:41:57;100805.69;;;17.37;41.89
75656;BME280;64252;51.094;13.714;2024-02-21T04:44:23;100810.69;;;17.26;41.65
75656;BME280;64252;51.094;13.714;2024-02-21T04:46:48;100797.94;;;17.34;41.43
75656;BME280;64252;51.094;13.714;2024-02-21T04:49:14;100802.28;;;17.12;42.39
75656;BME280;64252;51.094;13.714;2024-02-21T04:51:40;100805.28;;;16.98;42.30
75656;BME280;64252;51.094;13.714;2024-02-21T04:54:06;100800.59;;;17.18;41.78
75656;BME280;64252;51.094;13.714;2024-02-21T04:56:32;100791.41;;;17.37;41.49
75656;BME280;64252;51.094;13.714;2024-02-21T04:59:00;100803.03;;;17.53;41.45
75656;BME280;64252;51.094;13.714;2024-02-21T05:01:28;100786.75;;;16.76;42.92
75656;BME280;64252;51.094;13.714;2024-02-21T05:03:54;100792.78;;;17.60;41.33
75656;BME280;64252;51.094;13.714;2024-02-21T05:06:19;100777.47;;;17.77;40.37
75656;BME280;64252;51.094;13.714;2024-02-21T05:08:46;100779.53;;;17.05;41.78
75656;BME280;64252;51.094;13.714;2024-02-21T05:11:13;100775.34;;;17.81;40.71
75656;BME280;64252;51.094;13.714;2024-02-21T05:13:38;100774.94;;;18.09;40.25
75656;BME280;64252;51.094;13.714;2024-02-21T05:16:04;100778.66;;;17.79;40.73
75656;BME280;64252;51.094;13.714;2024-02-21T05:20:55;100778.19;;;17.84;40.94
75656;BME280;64252;51.094;13.714;2024-02-21T05:23:21;100778.66;;;17.45;41.93
75656;BME280;64252;51.094;13.714;2024-02-21T05:25:46;100779.06;;;17.10;42.56
75656;BME280;64252;51.094;13.714;2024-02-21T05:28:12;100773.28;;;16.80;43.07
75656;BME280;64252;51.094;13.714;2024-02-21T05:30:37;100774.03;;;16.36;44.52
75656;BME280;64252;51.094;13.714;2024-02-21T05:33:06;100770.13;;;17.08;42.78
75656;BME280;64252;51.094;13.714;2024-02-21T05:35:32;100772.06;;;17.18;42.38
75656;BME280;64252;51.094;13.714;2024-02-21T05:37:58;100765.00;;;17.64;41.77
75656;BME280;64252;51.094;13.714;2024-02-21T05:40:24;100754.78;;;17.32;42.22
75656;BME280;64252;51.094;13.714;2024-02-21T05:42:51;100763.69;;;17.98;40.88
75656;BME280;64252;51.094;13.714;2024-02-21T05:45:17;100752.75;;;17.29;42.14
75656;BME280;64252;51.094;13.714;2024-02-21T05:47:43;100751.28;;;16.80;43.25
75656;BME280;64252;51.094;13.714;2024-02-21T05:50:10;100763.22;;;16.64;43.37
75656;BME280;64252;51.094;13.714;2024-02-21T05:52:35;100759.09;;;17.10;42.59
75656;BME280;64252;51.094;13.714;2024-02-21T05:55:01;100750.72;;;16.92;43.15
75656;BME280;64252;51.094;13.714;2024-02-21T05:57:26;100747.16;;;17.52;42.17
75656;BME280;64252;51.094;13.714;2024-02-21T05:59:52;100741.34;;;17.90;41.71
75656;BME280;64252;51.094;13.714;2024-02-21T06:02:18;100751.38;;;17.07;43.03
75656;BME280;64252;51.094;13.714;2024-02-21T06:04:43;100740.72;;;16.74;43.71
75656;BME280;64252;51.094;13.714;2024-02-21T06:07:09;100738.16;;;17.54;42.86
75656;BME280;64252;51.094;13.714;2024-02-21T06:09:36;100733.84;;;16.67;43.98
75656;BME280;64252;51.094;13.714;2024-02-21T06:12:02;100733.22;;;17.24;43.00
75656;BME280;64252;51.094;13.714;2024-02-21T06:14:27;100720.38;;;16.27;45.33
75656;BME280;64252;51.094;13.714;2024-02-21T06:16:53;100729.41;;;17.04;44.05
75656;BME280;64252;51.094;13.714;2024-02-21T06:19:18;100717.00;;;17.82;42.15
75656;BME280;64252;51.094;13.714;2024-02-21T06:21:44;100709.41;;;17.38;42.80
75656;BME280;64252;51.094;13.714;2024-02-21T06:24:09;100714.56;;;17.50;42.58
75656;BME280;64252;51.094;13.714;2024-02-21T06:26:35;100710.13;;;17.45;42.88
75656;BME280;64252;51.094;13.714;2024-02-21T06:29:00;100716.50;;;17.56;42.85
75656;BME280;64252;51.094;13.714;2024-02-21T06:31:27;100715.28;;;17.27;43.35
75656;BME280;64252;51.094;13.714;2024-02-21T06:33:53;100706.78;;;17.20;43.73
75656;BME280;64252;51.094;13.714;2024-02-21T06:36:19;100705.06;;;17.56;42.76
75656;BME280;64252;51.094;13.714;2024-02-21T06:38:44;100708.16;;;17.73;42.52
75656;BME280;64252;51.094;13.714;2024-02-21T06:41:17;100704.44;;;17.45;43.08
75656;BME280;64252;51.094;13.714;2024-02-21T06:43:44;100709.09;;;17.63;42.62
75656;BME280;64252;51.094;13.714;2024-02-21T06:46:11;100709.72;;;17.77;42.81
75656;BME280;64252;51.094;13.714;2024-02-21T06:48:37;100703.19;;;17.77;42.75
75656;BME280;64252;51.094;13.714;2024-02-21T06:51:03;100709.38;;;17.72;43.00
75656;BME280;64252;51.094;13.714;2024-02-21T06:53:29;100712.22;;;17.72;42.73
75656;BME280;64252;51.094;13.714;2024-02-21T06:55:54;100715.09;;;18.25;41.76
75656;BME280;64252;51.094;13.714;2024-02-21T06:58:20;100717.94;;;17.72;42.63
75656;BME280;64252;51.094;13.714;2024-02-21T07:00:45;100720.13;;;17.91;42.49
75656;BME280;64252;51.094;13.714;2024-02-21T07:03:11;100727.91;;;18.14;41.68
75656;BME280;64252;51.094;13.714;2024-02-21T07:05:36;100721.38;;;18.13;41.64
75656;BME280;64252;51.094;13.714;2024-02-21T07:08:03;100723.53;;;18.32;41.49
75656;BME280;64252;51.094;13.714;2024-02-21T07:10:29;100714.88;;;18.13;41.78
75656;BME280;64252;51.094;13.714;2024-02-21T07:12:55;100723.66;;;18.25;41.40
75656;BME280;64252;51.094;13.714;2024-02-21T07:15:20;100721.31;;;18.43;41.20
75656;BME280;64252;51.094;13.714;2024-02-21T07:17:46;100727.06;;;18.17;41.79
75656;BME280;64252;51.094;13.714;2024-02-21T07:20:12;100718.78;;;18.72;40.83
75656;BME280;64252;51.094;13.714;2024-02-21T07:22:37;100723.28;;;18.47;41.08
75656;BME280;64252;51.094;13.714;2024-02-21T07:25:03;100728.03;;;18.07;41.91
75656;BME280;64252;51.094;13.714;2024-02-21T07:27:29;100730.53;;;17.78;42.38
75656;BME280;64252;51.094;13.714;2024-02-21T07:29:57;100729.06;;;17.93;42.56
75656;BME280;64252;51.094;13.714;2024-02-21T07:32:22;100728.97;;;18.50;41.45
75656;BME280;64252;51.094;13.714;2024-02-21T07:34:48;100721.28;;;18.20;41.47
75656;BME280;64252;51.094;13.714;2024-02-21T07:37:13;100726.97;;;18.70;41.11
75656;BME280;64252;51.094;13.714;2024-02-21T07:39:39;100723.59;;;18.29;41.15
75656;BME280;64252;51.094;13.714;2024-02-21T07:42:04;100714.47;;;18.61;41.02
75656;BME280;64252;51.094;13.714;2024-02-21T07:46:58;100709.34;;;18.95;40.48
75656;BME280;64252;51.094;13.714;2024-02-21T07:49:24;100706.78;;;18.58;40.30
75656;BME280;64252;51.094;13.714;2024-02-21T07:51:49;100712.81;;;19.06;40.35
75656;BME280;64252;51.094;13.714;2024-02-21T07:54:15;100710.88;;;18.57;40.89
75656;BME280;64252;51.094;13.714;2024-02-21T07:56:41;100704.38;;;19.19;39.87
75656;BME280;64252;51.094;13.714;2024-02-21T07:59:06;100714.69;;;18.73;40.62
75656;BME280;64252;51.094;13.714;2024-02-21T08:01:33;100713.97;;;18.42;40.48
75656;BME280;64252;51.094;13.714;2024-02-21T08:03:58;100719.31;;;18.40;40.45
75656;BME280;64252;51.094;13.714;2024-02-21T08:06:24;100707.66;;;18.55;40.57
75656;BME280;64252;51.094;13.714;2024-02-21T08:08:51;100701.69;;;18.69;40.57
75656;BME280;64252;51.094;13.714;2024-02-21T08:11:16;100715.47;;;17.74;41.93
75656;BME280;64252;51.094;13.714;2024-02-21T08:13:42;100712.84;;;18.36;41.07
75656;BME280;64252;51.094;13.714;2024-02-21T08:16:07;100707.44;;;19.08;39.76
75656;BME280;64252;51.094;13.714;2024-02-21T08:18:33;100710.06;;;18.99;39.67
75656;BME280;64252;51.094;13.714;2024-02-21T08:21:03;100708.63;;;18.45;40.25
75656;BME280;64252;51.094;13.714;2024-02-21T08:23:28;100707.38;;;18.46;40.88
75656;BME280;64252;51.094;13.714;2024-02-21T08:25:54;100705.75;;;19.30;39.45
75656;BME280;64252;51.094;13.714;2024-02-21T08:28:20;100701.69;;;18.69;40.31
75656;BME280;64252;51.094;13.714;2024-02-21T08:30:45;100712.09;;;18.32;41.23
75656;BME280;64252;51.094;13.714;2024-02-21T08:33:15;100710.06;;;18.99;40.09
75656;BME280;64252;51.094;13.714;2024-02-21T08:35:42;100696.25;;;18.74;40.33
75656;BME280;64252;51.094;13.714;2024-02-21T08:38:07;100695.56;;;18.43;40.74
75656;BME280;64252;51.094;13.714;2024-02-21T08:40:33;100691.78;;;18.93;40.12
75656;BME280;64252;51.094;13.714;2024-02-21T08:43:00;100693.91;;;17.39;42.37
75656;BME280;64252;51.094;13.714;2024-02-21T08:45:26;100691.56;;;17.30;42.67
75656;BME280;64252;51.094;13.714;2024-02-21T08:47:51;100697.53;;;17.73;41.81
75656;BME280;64252;51.094;13.714;2024-02-21T08:50:17;100688.91;;;17.46;42.32
75656;BME280;64252;51.094;13.714;2024-02-21T08:52:42;100696.13;;;17.54;42.48
75656;BME280;64252;51.094;13.714;2024-02-21T08:55:08;100687.66;;;18.05;41.51
75656;BME280;64252;51.094;13.714;2024-02-21T08:57:34;100680.88;;;18.18;41.24
75656;BME280;64252;51.094;13.714;2024-02-21T09:00:05;100676.81;;;18.85;40.46
75656;BME280;64252;51.094;13.714;2024-02-21T09:02:40;100674.91;;;18.32;41.33
75656;BME280;64252;51.094;13.714;2024-02-21T09:05:08;100677.91;;;18.25;41.41
75656;BME280;64252;51.094;13.714;2024-02-21T09:07:33;100682.66;;;18.59;40.77
75656;BME280;64252;51.094;13.714;2024-02-21T09:09:59;100683.09;;;17.53;42.40
75656;BME280;64252;51.094;13.714;2024-02-21T09:12:25;100679.38;;;17.87;41.68
75656;BME280;64252;51.094;13.714;2024-02-21T09:14:50;100678.53;;;18.36;41.07
75656;BME280;64252;51.094;13.714;2024-02-21T09:17:16;100675.56;;;18.67;40.76
75656;BME280;64252;51.094;13.714;2024-02-21T09:19:50;100671.63;;;19.00;39.88
75656;BME280;64252;51.094;13.714;2024-02-21T09:22:15;100673.75;;;18.30;40.88
75656;BME280;64252;51.094;13.714;2024-02-21T09:24:41;100675.75;;;17.83;41.77
75656;BME280;64252;51.094;13.714;2024-02-21T09:27:07;100684.94;;;18.67;40.39
75656;BME280;64252;51.094;13.714;2024-02-21T09:29:32;100679.66;;;18.19;41.38
75656;BME280;64252;51.094;13.714;2024-02-21T09:31:59;100681.66;;;17.95;41.10
75656;BME280;64252;51.094;13.714;2024-02-21T09:34:25;100692.56;;;18.27;41.31
75656;BME280;64252;51.094;13.714;2024-02-21T09:36:50;100702.41;;;18.26;41.06
75656;BME280;64252;51.094;13.714;2024-02-21T09:39:16;100693.03;;;17.99;41.71
75656;BME280;64252;51.094;13.714;2024-02-21T09:41:50;100698.38;;;17.97;41.66
75656;BME280;64252;51.094;13.714;2024-02-21T09:44:21;100700.03;;;18.45;41.02
75656;BME280;64252;51.094;13.714;2024-02-21T09:46:55;100700.50;;;17.93;42.08
75656;BME280;64252;51.094;13.714;2024-02-21T09:49:34;100693.25;;;17.28;42.83
75656;BME280;64252;51.094;13.714;2024-02-21T09:52:04;100693.19;;;17.62;42.35
75656;BME280;64252;51.094;13.714;2024-02-21T09:54:30;100693.00;;;17.45;42.51
75656;BME280;64252;51.094;13.714;2024-02-21T09:57:03;100685.38;;;17.35;42.82
75656;BME280;64252;51.094;13.714;2024-02-21T09:59:31;100692.44;;;17.27;42.99
75656;BME280;64252;51.094;13.714;2024-02-21T10:01:57;100691.75;;;17.16;42.75
75656;BME280;64252;51.094;13.714;2024-02-21T10:04:24;100692.09;;;17.22;43.28
75656;BME280;64252;51.094;13.714;2024-02-21T10:06:50;100704.31;;;17.22;43.03
75656;BME280;64252;51.094;13.714;2024-02-21T10:09:27;100692.78;;;16.99;43.75
75656;BME280;64252;51.094;13.714;2024-02-21T10:11:54;100689.09;;;18.39;41.43
75656;BME280;64252;51.094;13.714;2024-02-21T10:14:20;100690.88;;;17.19;43.18
75656;BME280;64252;51.094;13.714;2024-02-21T10:16:56;100700.22;;;17.53;42.86
75656;BME280;64252;51.094;13.714;2024-02-21T10:19:24;100696.88;;;17.62;42.11
75656;BME280;64252;51.094;13.714;2024-02-21T10:22:03;100688.16;;;17.73;42.20
75656;BME280;64252;51.094;13.714;2024-02-21T10:24:32;100683.66;;;17.11;43.18
75656;BME280;64252;51.094;13.714;2024-02-21T10:27:06;100691.53;;;17.91;42.05
75656;BME280;64252;51.094;13.714;2024-02-21T10:29:37;100688.63;;;17.68;42.47
75656;BME280;64252;51.094;13.714;2024-02-21T10:32:06;100681.41;;;18.60;40.36
75656;BME280;64252;51.094;13.714;2024-02-21T10:34:32;100689.72;;;18.27;41.44
75656;BME280;64252;51.094;13.714;2024-02-21T10:37:02;100693.44;;;18.48;40.95
75656;BME280;64252;51.094;13.714;2024-02-21T10:39:30;100679.53;;;18.03;41.22
75656;BME280;64252;51.094;13.714;2024-02-21T10:41:59;100669.69;;;18.51;40.62
75656;BME280;64252;51.094;13.714;2024-02-21T10:44:28;100670.72;;;18.17;40.58
75656;BME280;64252;51.094;13.714;2024-02-21T10:46:55;100663.78;;;18.15;41.04
75656;BME280;64252;51.094;13.714;2024-02-21T10:49:26;100661.19;;;18.47;40.81
75656;BME280;64252;51.094;13.714;2024-02-21T10:52:06;100649.66;;;18.08;41.31
75656;BME280;64252;51.094;13.714;2024-02-21T10:54:44;100648.84;;;18.07;40.86
75656;BME280;64252;51.094;13.714;2024-02-21T10:57:13;100656.25;;;18.71;40.10
75656;BME280;64252;51.094;13.714;2024-02-21T10:59:40;100643.25;;;19.45;38.69
75656;BME280;64252;51.094;13.714;2024-02-21T11:02:06;100640.94;;;19.20;38.95
75656;BME280;64252;51.094;13.714;2024-02-21T11:04:32;100643.72;;;18.41;40.18
75656;BME280;64252;51.094;13.714;2024-02-21T11:07:03;100642.63;;;18.98;39.26
75656;BME280;64252;51.094;13.714;2024-02-21T11:12:05;100637.16;;;18.21;40.87
75656;BME280;64252;51.094;13.714;2024-02-21T11:14:32;100638.34;;;17.74;40.90
75656;BME280;64252;51.094;13.714;2024-02-21T11:16:58;100636.19;;;17.24;42.20
75656;BME280;64252;51.094;13.714;2024-02-21T11:19:28;100630.28;;;18.38;40.84
75656;BME280;64252;51.094;13.714;2024-02-21T11:21:56;100624.72;;;18.94;39.30
75656;BME280;64252;51.094;13.714;2024-02-21T11:24:31;100625.31;;;18.66;39.93
75656;BME280;64252;51.094;13.714;2024-02-21T11:29:43;100599.84;;;18.91;39.31
75656;BME280;64252;51.094;13.714;2024-02-21T11:32:10;100593.78;;;18.26;40.36
75656;BME280;64252;51.094;13.714;2024-02-21T11:34:37;100590.75;;;18.57;40.73
75656;BME280;64252;51.094;13.714;2024-02-21T11:37:13;100595.06;;;19.04;39.47
75656;BME280;64252;51.094;13.714;2024-02-21T11:39:41;100586.25;;;18.36;40.07
75656;BME280;64252;51.094;13.714;2024-02-21T11:42:08;100574.69;;;20.19;38.18
75656;BME280;64252;51.094;13.714;2024-02-21T11:44:35;100577.41;;;20.10;37.66
75656;BME280;64252;51.094;13.714;2024-02-21T11:47:04;100572.94;;;19.93;37.52
75656;BME280;64252;51.094;13.714;2024-02-21T11:49:35;100568.56;;;19.72;37.80
75656;BME280;64252;51.094;13.714;2024-02-21T11:52:02;100567.59;;;19.43;38.66
75656;BME280;64252;51.094;13.714;2024-02-21T11:54:33;100558.16;;;19.26;38.81
75656;BME280;64252;51.094;13.714;2024-02-21T11:57:00;100562.72;;;18.48;39.74
75656;BME280;64252;51.094;13.714;2024-02-21T11:59:30;100564.03;;;20.20;37.74
75656;BME280;64252;51.094;13.714;2024-02-21T12:01:58;100545.84;;;20.55;36.85
75656;BME280;64252;51.094;13.714;2024-02-21T12:04:24;100542.56;;;19.95;37.47
75656;BME280;64252;51.094;13.714;2024-02-21T12:06:50;100533.81;;;20.31;36.85
75656;BME280;64252;51.094;13.714;2024-02-21T12:09:18;100533.56;;;19.28;38.71
75656;BME280;64252;51.094;13.714;2024-02-21T12:11:45;100527.59;;;20.04;37.53
75656;BME280;64252;51.094;13.714;2024-02-21T12:14:16;100519.84;;;19.56;38.07
75656;BME280;64252;51.094;13.714;2024-02-21T12:16:42;100509.44;;;19.78;37.93
75656;BME280;64252;51.094;13.714;2024-02-21T12:19:09;100519.13;;;19.52;38.36
75656;BME280;64252;51.094;13.714;2024-02-21T12:21:35;100497.84;;;19.53;38.36
75656;BME280;64252;51.094;13.714;2024-02-21T12:24:15;100509.59;;;19.87;37.76
75656;BME280;64252;51.094;13.714;2024-02-21T12:26:41;100495.13;;;20.52;37.17
75656;BME280;64252;51.094;13.714;2024-02-21T12:29:08;100485.97;;;20.57;36.45
75656;BME280;64252;51.094;13.714;2024-02-21T12:31:38;100475.47;;;21.30;35.84
75656;BME280;64252;51.094;13.714;2024-02-21T12:34:03;100476.88;;;20.30;36.73
75656;BME280;64252;51.094;13.714;2024-02-21T12:36:32;100463.91;;;20.54;36.54
75656;BME280;64252;51.094;13.714;2024-02-21T12:38:59;100457.50;;;19.27;38.61
75656;BME280;64252;51.094;13.714;2024-02-21T12:41:25;100449.22;;;20.23;37.47
75656;BME280;64252;51.094;13.714;2024-02-21T12:43:52;100448.13;;;19.43;38.28
75656;BME280;64252;51.094;13.714;2024-02-21T12:46:18;100440.47;;;20.14;37.34
75656;BME280;64252;51.094;13.714;2024-02-21T12:48:43;100440.66;;;21.15;36.08